Data for 11/12/2008

Time Sea-Level Adjusted Pressure Absolute Pressure Temperature Relative Humidity Dew Point   
(mb) (inHg) (mb) (inHg) (C) (F) (%) (C) (F)
00:05 1016 30 845 24.95 4.4 39.9 62 -2.2 28
00:10 1016 30 845 24.95 4.6 40.2 62 -2 28.4
00:15 1016 30 845 24.95 4.7 40.4 62 -1.9 28.5
00:20 1016 30 845 24.95 4.7 40.4 61 -2.1 28.2
00:25 1016 30 845 24.95 4.8 40.6 61 -2.1 28.2
00:30 1016 30 845 24.95 4.8 40.6 61 -2 28.3
00:35 1016 30 845 24.95 4.9 40.7 61 -2 28.3
00:40 1016 30 845 24.95 5 41 61 -1.8 28.7
00:45 1016 30 845 24.95 5.2 41.3 58 -2.3 27.8
00:50 1016 30 845 24.95 5.4 41.7 57 -2.5 27.5
00:55 1016 30 845 24.95 5.6 42 57 -2.3 27.8
01:00 1016 30 845 24.95 5.6 42.1 56 -2.4 27.6
01:05 1016 30 845 24.95 5.7 42.3 56 -2.5 27.6
01:10 1016 30 845 24.95 5.9 42.6 54 -2.6 27.3
01:15 1016 30 845 24.95 5.9 42.7 54 -2.6 27.3
01:20 1016 30 845 24.95 6 42.8 54 -2.6 27.3
01:25 1016 30 845 24.95 6.1 42.9 54 -2.6 27.3
01:30 1016 30 845 24.95 6.1 43 54 -2.4 27.6
01:35 1016 30 845 24.95 6 42.8 54 -2.5 27.4
01:40 1016 30 845 24.95 6 42.9 54 -2.6 27.3
01:45 1016 30 845 24.95 6 42.9 53 -2.7 27.1
01:50 1015 29.97 845 24.95 6.1 43 53 -2.7 27.2
01:55 1015 29.97 845 24.95 6.2 43.1 53 -2.7 27.1
02:00 1015 29.97 844 24.92 6.1 43 53 -2.8 27
02:05 1015 29.97 844 24.92 6.2 43.1 53 -2.7 27.2
02:10 1015 29.97 844 24.92 6.2 43.2 53 -2.7 27.1
02:15 1015 29.97 844 24.92 6.1 43 53 -2.6 27.3
02:20 1015 29.97 844 24.92 6 42.9 54 -2.6 27.3
02:25 1015 29.97 844 24.92 5.9 42.7 54 -2.6 27.3
02:30 1015 29.97 844 24.92 5.9 42.7 54 -2.6 27.3
02:35 1015 29.97 844 24.92 5.9 42.7 55 -2.5 27.5
02:40 1015 29.97 844 24.92 5.9 42.7 54 -2.6 27.3
02:45 1015 29.97 844 24.92 5.9 42.7 54 -2.6 27.3
02:50 1015 29.97 844 24.92 5.9 42.6 54 -2.6 27.4
02:55 1015 29.97 844 24.92 5.9 42.6 55 -2.5 27.5
03:00 1015 29.97 844 24.92 5.8 42.5 55 -2.6 27.3
03:05 1015 29.97 844 24.92 5.8 42.4 55 -2.6 27.4
03:10 1015 29.97 844 24.92 5.7 42.2 56 -2.5 27.5
03:15 1015 29.97 844 24.92 5.5 41.9 57 -2.4 27.6
03:20 1015 29.97 844 24.92 5.2 41.4 57 -2.5 27.5
03:25 1015 29.97 844 24.92 5.1 41.2 57 -2.7 27.2
03:30 1015 29.97 844 24.92 5.3 41.6 54 -3.3 26.1
03:35 1015 29.97 844 24.92 5.6 42.1 55 -2.7 27.1
03:40 1015 29.97 844 24.92 5.4 41.8 54 -3 26.6
03:45 1015 29.97 844 24.92 5.5 41.9 55 -2.9 26.7
03:50 1015 29.97 844 24.92 5.4 41.7 53 -3.3 26
03:55 1015 29.97 844 24.92 5.3 41.5 55 -3 26.7
04:00 1015 29.97 844 24.92 5.1 41.2 56 -3.1 26.5
04:05 1014 29.94 844 24.92 5.1 41.1 56 -2.9 26.8
04:10 1014 29.94 844 24.92 5.1 41.3 56 -2.9 26.9
04:15 1015 29.97 844 24.92 5.1 41.1 57 -2.7 27.2
04:20 1014 29.94 844 24.92 5.2 41.3 55 -3.1 26.3
04:25 1014 29.94 844 24.92 5.5 41.9 52 -3.5 25.7
04:30 1014 29.94 843 24.89 5.6 42.1 54 -3 26.5
04:35 1014 29.94 843 24.89 5.5 42 53 -3.2 26.3
04:40 1014 29.94 843 24.89 5.6 42.1 54 -3 26.5
04:45 1014 29.94 843 24.89 5.8 42.4 53 -3 26.5
04:50 1014 29.94 843 24.89 5.7 42.3 54 -2.9 26.7
04:55 1013 29.91 843 24.89 5.7 42.3 53 -3.1 26.3
05:00 1014 29.94 843 24.89 5.9 42.6 52 -3.2 26.3
05:05 1014 29.94 843 24.89 6 42.7 53 -3 26.6
05:10 1014 29.94 843 24.89 5.8 42.5 53 -2.9 26.8
05:15 1014 29.94 843 24.89 5.9 42.6 54 -2.7 27.2
05:20 1013 29.91 843 24.89 5.8 42.5 54 -2.7 27.2
05:25 1013 29.91 843 24.89 5.8 42.5 54 -2.6 27.3
05:30 1013 29.91 843 24.89 6 42.8 54 -2.6 27.3
05:35 1013 29.91 842 24.86 6.1 43 53 -2.8 27
05:40 1013 29.91 842 24.86 6.3 43.4 53 -2.6 27.3
05:45 1013 29.91 842 24.86 6.4 43.6 52 -2.6 27.3
05:50 1013 29.91 842 24.86 6.6 43.9 50 -3 26.6
05:55 1013 29.91 842 24.86 6.9 44.5 49 -2.9 26.7
06:00 1013 29.91 843 24.89 7.1 44.8 49 -2.8 27
06:05 1013 29.91 843 24.89 7.1 44.8 50 -2.6 27.4
06:10 1013 29.91 843 24.89 6.9 44.5 52 -2.2 28
06:15 1013 29.91 843 24.89 6.8 44.2 56 -1.4 29.4
06:20 1013 29.91 843 24.89 6.7 44.1 57 -1.1 30
06:25 1013 29.91 843 24.89 6.7 44 58 -1.1 30
06:30 1013 29.91 842 24.86 6.8 44.2 58 -0.9 30.4
06:35 1013 29.91 842 24.86 6.8 44.2 60 -0.3 31.4
06:40 1013 29.91 842 24.86 6.7 44.1 62 -0.1 31.8
06:45 1013 29.91 842 24.86 6.4 43.5 62 -0.3 31.5
06:50 1013 29.91 842 24.86 6.1 42.9 61 -0.9 30.4
06:55 1013 29.91 842 24.86 5.9 42.7 63 -0.5 31.2
07:00 1013 29.91 842 24.86 5.9 42.6 62 -0.7 30.7
07:05 1013 29.91 842 24.86 6.1 43 63 -0.5 31.1
07:10 1013 29.91 842 24.86 6.1 42.9 64 -0.3 31.5
07:15 1013 29.91 842 24.86 5.8 42.5 67 0.1 32.2
07:20 1013 29.91 842 24.86 5.7 42.3 67 0.2 32.4
07:25 1013 29.91 842 24.86 5.8 42.4 67 0.2 32.3
07:30 1013 29.91 842 24.86 6 42.8 66 0.2 32.3
07:35 1013 29.91 842 24.86 6.1 43 65 0.1 32.1
07:40 1013 29.91 842 24.86 6.2 43.2 67 0.5 32.8
07:45 1013 29.91 842 24.86 6.3 43.3 65 0.2 32.4
07:50 1013 29.91 842 24.86 6.3 43.3 66 0.5 32.9
07:55 1013 29.91 842 24.86 6.4 43.6 64 0.2 32.3
08:00 1013 29.91 842 24.86 6.5 43.7 65 0.5 32.8
08:05 1013 29.91 842 24.86 6.6 43.8 65 0.4 32.7
08:10 1013 29.91 842 24.86 6.6 43.8 65 0.5 32.8
08:15 1013 29.91 842 24.86 6.6 44 63 0.1 32.3
08:20 1013 29.91 842 24.86 6.7 44.1 64 0.5 32.9
08:25 1013 29.91 842 24.86 6.7 44.1 62 0.1 32.1
08:30 1013 29.91 842 24.86 6.7 44.1 64 0.4 32.7
08:35 1013 29.91 842 24.86 6.7 44 64 0.4 32.8
08:40 1013 29.91 842 24.86 6.7 44.1 64 0.4 32.8
08:45 1013 29.91 842 24.86 6.9 44.3 63 0.3 32.6
08:50 1013 29.91 842 24.86 6.9 44.5 64 0.6 33
08:55 1013 29.91 842 24.86 7.1 44.7 63 0.6 33.2
09:00 1013 29.91 842 24.86 7.3 45.1 62 0.5 32.9
09:05 1013 29.91 842 24.86 7.5 45.5 61 0.6 33
09:10 1013 29.91 842 24.86 7.6 45.7 61 0.6 33
09:15 1013 29.91 842 24.86 7.9 46.2 61 0.9 33.6
09:20 1013 29.91 842 24.86 8 46.4 61 0.9 33.6
09:25 1012 29.88 842 24.86 8 46.5 61 0.9 33.6
09:30 1012 29.88 842 24.86 8 46.4 61 1.1 33.9
09:35 1012 29.88 841 24.83 8 46.5 62 1.2 34.2
09:40 1012 29.88 841 24.83 8.2 46.7 62 1.3 34.3
09:45 1012 29.88 841 24.83 8.3 46.9 61 1.3 34.4
09:50 1012 29.88 841 24.83 8.4 47.2 60 1.2 34.1
09:55 1012 29.88 841 24.83 8.8 47.9 60 1.5 34.6
10:00 1012 29.88 841 24.83 9.1 48.4 59 1.4 34.6
10:05 1012 29.88 841 24.83 9.2 48.6 59 1.7 35.1
10:10 1012 29.88 841 24.83 9.3 48.7 57 1.2 34.1
10:15 1012 29.88 841 24.83 9.6 49.2 55 1.1 34
10:20 1012 29.88 841 24.83 9.8 49.7 55 1.2 34.2
10:25 1012 29.88 841 24.83 10.1 50.2 54 1.3 34.3
10:30 1012 29.88 841 24.83 10.5 50.8 53 1.4 34.6
10:35 1012 29.88 841 24.83 10.8 51.4 52 1.5 34.6
10:40 1012 29.88 841 24.83 10.9 51.7 52 1.5 34.6
10:45 1012 29.88 841 24.83 11.1 52 52 1.7 35
10:50 1012 29.88 841 24.83 11.3 52.3 51 1.5 34.8
10:55 1011 29.85 841 24.83 11.5 52.6 51 1.7 35.1
11:00 1011 29.85 841 24.83 11.6 52.8 50 1.5 34.6
11:05 1011 29.85 840 24.81 11.8 53.2 49 1.4 34.6
11:10 1011 29.85 840 24.81 11.8 53.2 50 1.7 35.1
11:15 1011 29.85 840 24.81 11.9 53.4 49 1.5 34.7
11:20 1011 29.85 840 24.81 12.1 53.7 48 1.5 34.6
11:25 1011 29.85 840 24.81 12.2 54 48 1.7 35.1
11:30 1011 29.85 840 24.81 12.4 54.4 47 1.6 34.9
11:35 1011 29.85 840 24.81 12.6 54.6 46 1.4 34.5
11:40 1011 29.85 840 24.81 12.7 54.9 46 1.5 34.7
11:45 1011 29.85 840 24.81 12.9 55.2 45 1.5 34.6
11:50 1011 29.85 840 24.81 13.2 55.7 45 1.4 34.6
11:55 1011 29.85 840 24.81 13.2 55.8 44 1.4 34.5
12:00 1011 29.85 840 24.81 13.2 55.8 44 1.3 34.4
12:05 1010 29.83 840 24.81 13.1 55.6 45 1.5 34.6
12:10 1010 29.83 840 24.81 13.2 55.8 44 1.3 34.4
12:15 1010 29.83 839 24.78 13.3 56 43 1.2 34.2
12:20 1010 29.83 839 24.78 13.3 56 44 1.5 34.7
12:25 1010 29.83 839 24.78 13.3 55.9 43 1.2 34.1
12:30 1010 29.83 839 24.78 13.3 55.9 44 1.3 34.4
12:35 1010 29.83 839 24.78 13.3 55.9 44 1.3 34.4
12:40 1010 29.83 839 24.78 13.3 56 44 1.3 34.3
12:45 1010 29.83 839 24.78 13.4 56 43 1.3 34.3
12:50 1010 29.83 839 24.78 13.3 55.9 44 1.4 34.6
12:55 1010 29.83 839 24.78 13.2 55.8 44 1.4 34.5
13:00 1010 29.83 839 24.78 13.3 55.9 44 1.3 34.4
13:05 1010 29.83 840 24.81 13.3 56 44 1.4 34.5
13:10 1010 29.83 840 24.81 13.3 55.9 44 1.5 34.6
13:15 1010 29.83 840 24.81 13.3 55.9 44 1.4 34.6
13:20 1010 29.83 840 24.81 13.3 55.9 44 1.5 34.7
13:25 1010 29.83 840 24.81 13.3 56 44 1.3 34.3
13:30 1010 29.83 840 24.81 13.4 56 45 1.7 35.1
13:35 1010 29.83 840 24.81 13.3 55.9 45 1.7 35
13:40 1010 29.83 839 24.78 13.3 55.9 45 1.5 34.8
13:45 1010 29.83 839 24.78 13.3 55.9 45 1.6 34.9
13:50 1010 29.83 840 24.81 13.3 55.9 45 1.7 35.1
13:55 1010 29.83 839 24.78 13.4 56.1 44 1.4 34.5
14:00 1010 29.83 839 24.78 13.4 56.2 44 1.6 34.9
14:05 1010 29.83 839 24.78 13.5 56.3 44 1.5 34.7
14:10 1010 29.83 839 24.78 13.6 56.4 44 1.7 35
14:15 1010 29.83 839 24.78 13.5 56.4 44 1.6 34.9
14:20 1010 29.83 839 24.78 13.5 56.3 45 1.7 35.1
14:25 1010 29.83 839 24.78 13.6 56.4 45 1.8 35.3
14:30 1010 29.83 839 24.78 13.6 56.5 45 1.8 35.3
14:35 1010 29.83 839 24.78 13.5 56.4 45 2 35.5
14:40 1010 29.83 839 24.78 13.5 56.2 46 2 35.6
14:45 1009 29.8 839 24.78 13.3 55.9 46 2 35.6
14:50 1010 29.83 839 24.78 13.2 55.8 47 2.1 35.8
14:55 1010 29.83 839 24.78 13.2 55.7 47 2.1 35.7
15:00 1010 29.83 839 24.78 13.2 55.7 47 2.1 35.8
15:05 1010 29.83 839 24.78 13.2 55.7 46 2 35.6
15:10 1010 29.83 839 24.78 13.2 55.8 47 2.1 35.7
15:15 1010 29.83 839 24.78 13.2 55.7 47 2.2 36
15:20 1010 29.83 839 24.78 13.2 55.7 46 2 35.6
15:25 1010 29.83 839 24.78 13.2 55.7 47 2.2 36
15:30 1010 29.83 839 24.78 13.2 55.7 47 2.1 35.8
15:35 1010 29.83 839 24.78 13.2 55.8 46 1.9 35.5
15:40 1009 29.8 839 24.78 13.5 56.4 45 1.9 35.3
15:45 1009 29.8 839 24.78 13.5 56.3 46 2.1 35.9
15:50 1010 29.83 839 24.78 13.4 56.1 47 2.3 36.1
15:55 1009 29.8 839 24.78 13.3 55.9 47 2.2 35.9
16:00 1009 29.8 839 24.78 13.4 56 46 2.1 35.7
16:05 1009 29.8 839 24.78 13.3 56 47 2.2 36
16:10 1010 29.83 839 24.78 13.2 55.8 47 2.2 36
16:15 1010 29.83 839 24.78 13.3 55.9 46 2 35.6
16:20 1010 29.83 839 24.78 13.3 56 46 2.2 35.9
16:25 1010 29.83 839 24.78 13.4 56 46 2 35.6
16:30 1010 29.83 839 24.78 13.3 56 47 2.3 36.2
16:35 1010 29.83 839 24.78 13.2 55.7 48 2.4 36.3
16:40 1010 29.83 839 24.78 13.1 55.5 47 2.2 35.9
16:45 1010 29.83 839 24.78 13.1 55.6 48 2.5 36.5
16:50 1010 29.83 839 24.78 12.9 55.3 49 2.5 36.6
16:55 1010 29.83 839 24.78 12.9 55.2 49 2.6 36.6
17:00 1010 29.83 839 24.78 12.8 55.1 49 2.5 36.6
17:05 1010 29.83 839 24.78 12.7 54.9 50 2.6 36.7
17:10 1010 29.83 839 24.78 12.6 54.7 50 2.6 36.7
17:15 1010 29.83 839 24.78 12.7 54.8 50 2.5 36.6
17:20 1010 29.83 839 24.78 12.6 54.7 51 2.7 36.9
17:25 1010 29.83 839 24.78 12.5 54.4 51 2.7 36.9
17:30 1010 29.83 839 24.78 12.5 54.5 50 2.3 36.2
17:35 1010 29.83 839 24.78 12.6 54.6 50 2.5 36.6
17:40 1010 29.83 839 24.78 12.5 54.5 49 2.3 36.1
17:45 1010 29.83 839 24.78 12.6 54.6 49 2.3 36.1
17:50 1010 29.83 839 24.78 12.7 54.8 49 2.3 36.2
17:55 1009 29.8 839 24.78 12.7 54.9 49 2.3 36.1
18:00 1009 29.8 839 24.78 12.7 54.9 48 2.2 35.9
18:05 1009 29.8 839 24.78 12.8 55 48 2 35.6
18:10 1009 29.8 839 24.78 12.9 55.3 47 1.9 35.4
18:15 1009 29.8 839 24.78 13 55.4 46 1.6 34.9
18:20 1009 29.8 839 24.78 13.2 55.7 46 1.9 35.4
18:25 1009 29.8 839 24.78 13.1 55.5 46 1.8 35.3
18:30 1009 29.8 838 24.75 13 55.4 46 1.7 35.1
18:35 1009 29.8 838 24.75 13 55.5 45 1.6 34.8
18:40 1009 29.8 838 24.75 13.3 55.9 44 1.3 34.3
18:45 1009 29.8 838 24.75 13.4 56.1 44 1.5 34.7
18:50 1009 29.8 838 24.75 13.3 55.9 44 1.5 34.6
18:55 1009 29.8 838 24.75 13.3 56 44 1.5 34.7
19:00 1009 29.8 838 24.75 13.3 56 44 1.4 34.5
19:05 1009 29.8 838 24.75 13.4 56.1 44 1.5 34.8
19:10 1009 29.8 838 24.75 13.3 56 44 1.5 34.7
19:15 1009 29.8 838 24.75 13.3 56 44 1.4 34.6
19:20 1009 29.8 838 24.75 13.4 56.2 44 1.4 34.4
19:25 1009 29.8 838 24.75 13.5 56.3 44 1.4 34.6
19:30 1009 29.8 838 24.75 13.4 56.2 44 1.6 34.8
19:35 1009 29.8 838 24.75 13.3 56 45 1.6 34.9
19:40 1008 29.77 838 24.75 13.4 56 44 1.5 34.6
19:45 1008 29.77 838 24.75 13.4 56.1 44 1.6 34.8
19:50 1008 29.77 837 24.72 13.4 56.1 44 1.5 34.8
19:55 1008 29.77 837 24.72 13.3 56 45 1.6 34.9
20:00 1008 29.77 837 24.72 13.2 55.8 45 1.6 34.8
20:05 1008 29.77 837 24.72 13.2 55.8 44 1.4 34.5
20:10 1008 29.77 837 24.72 13.3 55.9 44 1.5 34.6
20:15 1008 29.77 837 24.72 13.3 55.9 44 1.5 34.6
20:20 1008 29.77 837 24.72 13.3 56 44 1.4 34.5
20:25 1008 29.77 837 24.72 13.4 56 44 1.5 34.6
20:30 1008 29.77 837 24.72 13.3 56 44 1.4 34.6
20:35 1008 29.77 837 24.72 13.3 55.9 44 1.5 34.6
20:40 1008 29.77 837 24.72 13.4 56 43 1.2 34.1
20:45 1008 29.77 837 24.72 13.4 56.1 44 1.3 34.4
20:50 1008 29.77 837 24.72 13.4 56.1 43 1.2 34.1
20:55 1008 29.77 837 24.72 13.5 56.3 44 1.5 34.7
21:00 1008 29.77 837 24.72 13.4 56 43 1.2 34.1
21:05 1008 29.77 837 24.72 13.5 56.3 43 1.2 34.2
21:10 1008 29.77 837 24.72 13.5 56.4 43 1.4 34.5
21:15 1008 29.77 837 24.72 13.4 56.1 44 1.3 34.4
21:20 1008 29.77 837 24.72 13.3 56 44 1.5 34.7
21:25 1008 29.77 837 24.72 13.2 55.7 44 1.3 34.3
21:30 1008 29.77 837 24.72 13.2 55.8 44 1.3 34.3
21:35 1007 29.74 837 24.72 13.3 55.9 44 1.4 34.5
21:40 1007 29.74 837 24.72 13.2 55.8 43 1 33.8
21:45 1007 29.74 837 24.72 13.3 55.9 43 1.1 34
21:50 1007 29.74 836 24.69 13.2 55.8 44 1.2 34.1
21:55 1007 29.74 836 24.69 13.3 55.9 43 0.9 33.7
22:00 1007 29.74 836 24.69 13.3 56 43 1.2 34.1
22:05 1007 29.74 836 24.69 13.3 55.9 43 1.1 33.9
22:10 1007 29.74 836 24.69 13.2 55.8 43 0.9 33.5
22:15 1007 29.74 836 24.69 13.3 56 43 0.9 33.7
22:20 1007 29.74 836 24.69 13.3 56 42 0.9 33.6
22:25 1007 29.74 836 24.69 13.3 55.9 43 1 33.8
22:30 1007 29.74 836 24.69 13.3 55.9 42 0.8 33.5
22:35 1006 29.71 835 24.66 13.3 56 42 0.9 33.7
22:40 1006 29.71 835 24.66 13.3 56 42 0.9 33.6
22:45 1006 29.71 835 24.66 13.3 55.9 43 0.9 33.7
22:50 1006 29.71 835 24.66 13.2 55.8 42 0.8 33.4
22:55 1005 29.68 835 24.66 13.2 55.8 43 0.8 33.5
23:00 1005 29.68 834 24.63 13.2 55.7 42 0.7 33.3
23:05 1005 29.68 834 24.63 13.3 55.9 42 0.8 33.4
23:10 1005 29.68 834 24.63 13.3 55.9 41 0.5 32.9
23:15 1005 29.68 835 24.66 13.5 56.2 42 0.8 33.4
23:20 1005 29.68 834 24.63 13.4 56.2 41 0.6 33.1
23:25 1005 29.68 834 24.63 13.6 56.4 41 0.7 33.2
23:30 1005 29.68 834 24.63 13.6 56.5 41 0.6 33
23:35 1005 29.68 834 24.63 13.6 56.5 41 0.8 33.5
23:40 1005 29.68 835 24.66 13.5 56.4 41 0.5 33
23:45 1005 29.68 835 24.66 13.6 56.5 40 0.3 32.6
23:50 1005 29.68 835 24.66 13.6 56.6 41 0.6 33
23:55 1005 29.68 835 24.66 13.6 56.5 41 0.5 32.9
24:00 1005 29.68 834 24.63 13.6 56.5 41 0.5 33